createdAt,value
2023-05-02T00:00:45.235Z,967.5546
2023-05-02T00:01:47.956Z,967.5662
2023-05-02T00:02:50.623Z,967.5869
2023-05-02T00:03:53.111Z,967.5885
2023-05-02T00:04:55.678Z,967.5792
2023-05-02T00:05:58.313Z,967.5638
2023-05-02T00:07:00.862Z,967.5600
2023-05-02T00:08:03.503Z,967.5554
2023-05-02T00:09:06.075Z,967.5431
2023-05-02T00:10:08.710Z,967.5461
2023-05-02T00:11:11.320Z,967.5492
2023-05-02T00:12:13.928Z,967.5623
2023-05-02T00:13:16.512Z,967.5685
2023-05-02T00:14:19.134Z,967.5662
2023-05-02T00:15:21.738Z,967.5638
2023-05-02T00:16:24.411Z,967.5654
2023-05-02T00:17:27.066Z,967.5477
2023-05-02T00:18:29.568Z,967.5369
2023-05-02T00:19:32.154Z,967.5170
2023-05-02T00:20:34.783Z,967.4938
2023-05-02T00:21:39.419Z,967.4539
2023-05-02T00:22:40.005Z,967.4370
2023-05-02T00:23:42.575Z,967.4161
2023-05-02T00:24:45.222Z,967.3992
2023-05-02T00:25:47.806Z,967.3962
2023-05-02T00:26:50.445Z,967.3939
2023-05-02T00:27:53.053Z,967.3885
2023-05-02T00:28:55.669Z,967.3792
2023-05-02T00:30:00.646Z,967.3608
2023-05-02T00:31:02.973Z,967.3431
2023-05-02T00:32:05.514Z,967.3377
2023-05-02T00:33:08.160Z,967.3362
2023-05-02T00:34:10.726Z,967.3315
2023-05-02T00:35:13.338Z,967.3385
2023-05-02T00:36:13.888Z,967.3354
2023-05-02T00:37:16.516Z,967.3416
2023-05-02T00:38:19.089Z,967.3408
2023-05-02T00:39:21.741Z,967.3347
2023-05-02T00:40:24.306Z,967.3331
2023-05-02T00:41:26.972Z,967.3292
2023-05-02T00:42:29.536Z,967.3270
2023-05-02T00:43:32.176Z,967.3362
2023-05-02T00:44:34.763Z,967.3331
2023-05-02T00:45:37.659Z,967.3377
2023-05-02T00:46:41.120Z,967.3408
2023-05-02T00:47:42.631Z,967.3561
2023-05-02T00:48:45.199Z,967.3623
2023-05-02T00:49:47.810Z,967.3877
2023-05-02T00:50:50.394Z,967.3892
2023-05-02T00:51:53.032Z,967.3977
2023-05-02T00:52:55.617Z,967.3947
2023-05-02T00:53:58.263Z,967.3862
2023-05-02T00:55:00.843Z,967.3770
2023-05-02T00:56:03.471Z,967.3770
2023-05-02T00:57:06.095Z,967.3723
2023-05-02T00:58:08.674Z,967.3777
2023-05-02T00:59:11.257Z,967.3685
2023-05-02T01:00:13.927Z,967.3615
2023-05-02T01:01:16.521Z,967.3469
2023-05-02T01:02:19.149Z,967.3416
2023-05-02T01:03:21.793Z,967.3254
2023-05-02T01:04:24.332Z,967.3208
2023-05-02T01:05:26.921Z,967.3192
2023-05-02T01:06:29.928Z,967.3200
2023-05-02T01:07:32.110Z,967.3262
2023-05-02T01:08:34.773Z,967.3239
2023-05-02T01:09:37.333Z,967.3446
2023-05-02T01:10:39.960Z,967.3623
2023-05-02T01:11:42.856Z,967.3708
2023-05-02T01:12:45.185Z,967.3762
2023-05-02T01:13:47.768Z,967.3823
2023-05-02T01:14:50.401Z,967.3892
2023-05-02T01:15:53.023Z,967.4046
2023-05-02T01:16:55.626Z,967.4084
2023-05-02T01:17:58.271Z,967.4008
2023-05-02T01:19:00.836Z,967.4016
2023-05-02T01:20:03.650Z,967.3969
2023-05-02T01:21:06.071Z,967.3846
2023-05-02T01:22:08.643Z,967.3862
2023-05-02T01:23:11.273Z,967.3862
2023-05-02T01:24:13.864Z,967.3823
2023-05-02T01:25:16.503Z,967.3792
2023-05-02T01:26:19.084Z,967.3831
2023-05-02T01:27:21.717Z,967.3877
2023-05-02T01:28:24.301Z,967.3992
2023-05-02T01:29:26.923Z,967.4061
2023-05-02T01:30:29.686Z,967.4161
2023-05-02T01:31:32.178Z,967.4285
2023-05-02T01:32:34.745Z,967.4200
2023-05-02T01:33:37.350Z,967.4292
2023-05-02T01:34:39.935Z,967.4362
2023-05-02T01:35:42.574Z,967.4392
2023-05-02T01:36:45.167Z,967.4477
2023-05-02T01:37:47.799Z,967.4470
2023-05-02T01:38:50.377Z,967.4654
2023-05-02T01:39:53.004Z,967.4738
2023-05-02T01:40:55.590Z,967.5070
2023-05-02T01:41:58.218Z,967.5192
2023-05-02T01:43:00.797Z,967.5277
2023-05-02T01:44:03.437Z,967.5369
2023-05-02T01:45:06.006Z,967.5354
2023-05-02T01:46:08.634Z,967.5423
2023-05-02T01:47:11.321Z,967.5630
2023-05-02T01:48:13.858Z,967.5715
2023-05-02T01:49:16.438Z,967.5577
2023-05-02T01:50:19.064Z,967.5400
2023-05-02T01:51:21.871Z,967.5316
2023-05-02T01:52:24.285Z,967.5139
2023-05-02T01:53:26.876Z,967.5038
2023-05-02T01:54:29.497Z,967.4930
2023-05-02T01:55:32.093Z,967.4877
2023-05-02T01:56:34.703Z,967.4861
2023-05-02T01:57:37.307Z,967.4838
2023-05-02T01:58:39.921Z,967.4900
2023-05-02T01:59:42.509Z,967.4938
2023-05-02T02:00:45.173Z,967.4985
2023-05-02T02:01:47.719Z,967.5054
2023-05-02T02:02:50.380Z,967.5361
2023-05-02T02:03:53.007Z,967.5361
2023-05-02T02:04:55.579Z,967.5515
2023-05-02T02:05:58.195Z,967.5731
2023-05-02T02:07:00.781Z,967.5854
2023-05-02T02:08:03.366Z,967.5746
2023-05-02T02:09:06.011Z,967.5877
2023-05-02T02:10:08.806Z,967.6046
2023-05-02T02:11:11.216Z,967.6069
2023-05-02T02:12:13.800Z,967.6023
2023-05-02T02:13:16.426Z,967.6123
2023-05-02T02:14:19.027Z,967.6123
2023-05-02T02:15:21.656Z,967.6146
2023-05-02T02:16:24.312Z,967.6130
2023-05-02T02:17:26.955Z,967.6177
2023-05-02T02:18:29.450Z,967.6169
2023-05-02T02:19:32.085Z,967.6169
2023-05-02T02:20:34.657Z,967.6215
2023-05-02T02:21:37.310Z,967.6200
2023-05-02T02:22:39.874Z,967.6262
2023-05-02T02:23:42.515Z,967.6246
2023-05-02T02:24:45.081Z,967.6300
2023-05-02T02:25:47.724Z,967.6315
2023-05-02T02:26:50.292Z,967.6308
2023-05-02T02:27:52.921Z,967.6370
2023-05-02T02:28:55.497Z,967.6454
2023-05-02T02:29:58.504Z,967.6447
2023-05-02T02:31:00.766Z,967.6454
2023-05-02T02:32:03.340Z,967.6454
2023-05-02T02:33:05.993Z,967.6431
2023-05-02T02:34:08.563Z,967.6462
2023-05-02T02:35:11.145Z,967.6439
2023-05-02T02:36:13.777Z,967.6377
2023-05-02T02:37:16.361Z,967.6447
2023-05-02T02:38:18.990Z,967.6546
2023-05-02T02:40:31.937Z,967.6479
2023-05-02T02:41:34.371Z,967.6300
2023-05-02T02:42:37.100Z,967.6123
2023-05-02T02:43:39.602Z,967.5961
2023-05-02T02:44:42.217Z,967.5916
2023-05-02T02:45:44.837Z,967.5939
2023-05-02T02:46:47.498Z,967.5892
2023-05-02T02:47:50.073Z,967.5892
2023-05-02T02:48:52.821Z,967.5708
2023-05-02T02:49:55.263Z,967.5708
2023-05-02T02:50:57.891Z,967.5715
2023-05-02T02:52:00.495Z,967.5754
2023-05-02T02:53:03.104Z,967.5831
2023-05-02T02:54:15.405Z,967.5977
2023-05-02T02:55:08.326Z,967.6192
2023-05-02T02:56:10.898Z,967.6439
2023-05-02T02:57:13.537Z,967.6669
2023-05-02T02:58:16.121Z,967.6892
2023-05-02T02:59:18.753Z,967.7054
2023-05-02T03:00:21.365Z,967.7285
2023-05-02T03:01:24.002Z,967.7415
2023-05-02T03:02:26.568Z,967.7538
2023-05-02T03:03:29.433Z,967.7631
2023-05-02T03:04:31.781Z,967.7800
2023-05-02T03:05:34.425Z,967.7938
2023-05-02T03:06:37.078Z,967.8030
2023-05-02T03:07:39.630Z,967.8130
2023-05-02T03:08:42.213Z,967.8162
2023-05-02T03:09:44.941Z,967.8085
2023-05-02T03:10:47.437Z,967.8192
2023-05-02T03:11:50.105Z,967.8323
2023-05-02T03:12:52.646Z,967.8446
2023-05-02T03:13:55.273Z,967.8431
2023-05-02T03:14:57.876Z,967.8354
2023-05-02T03:16:00.521Z,967.8130
2023-05-02T03:17:03.073Z,967.8062
2023-05-02T03:18:05.720Z,967.8046
2023-05-02T03:19:08.296Z,967.8108
2023-05-02T03:20:10.928Z,967.8177
2023-05-02T03:21:13.519Z,967.8246
2023-05-02T03:22:16.190Z,967.8354
2023-05-02T03:23:18.732Z,967.8531
2023-05-02T03:24:21.431Z,967.8608
2023-05-02T03:25:23.929Z,967.8715
2023-05-02T03:26:26.565Z,967.8770
2023-05-02T03:27:29.150Z,967.8969
2023-05-02T03:28:31.801Z,967.9115
2023-05-02T03:29:34.374Z,967.9261
2023-05-02T03:30:37.002Z,967.9292
2023-05-02T03:31:39.662Z,967.9377
2023-05-02T03:32:42.242Z,967.9431
2023-05-02T03:33:44.805Z,967.9569
2023-05-02T03:34:47.436Z,967.9677
2023-05-02T03:35:50.025Z,967.9808
2023-05-02T03:36:54.108Z,967.9892
2023-05-02T03:37:55.277Z,967.9854
2023-05-02T03:38:57.860Z,967.9930
2023-05-02T03:40:00.946Z,967.9892
2023-05-02T03:41:03.083Z,967.9877
2023-05-02T03:42:05.694Z,967.9885
2023-05-02T03:43:08.280Z,967.9738
2023-05-02T03:46:04.451Z,967.9271
2023-05-02T03:47:07.056Z,967.9161
2023-05-02T03:48:09.747Z,967.9192
2023-05-02T03:50:56.212Z,967.9250
2023-05-02T03:53:13.861Z,967.9286
2023-05-02T03:54:16.472Z,967.9138
2023-05-02T03:55:19.087Z,967.9100
2023-05-02T03:56:21.679Z,967.9100
2023-05-02T03:57:24.301Z,967.8985
2023-05-02T03:58:26.899Z,967.8892
2023-05-02T03:59:29.534Z,967.8939
2023-05-02T04:00:32.136Z,967.8885
2023-05-02T04:01:34.785Z,967.8931
2023-05-02T04:02:37.491Z,967.9016
2023-05-02T04:03:40.048Z,967.9131
2023-05-02T04:04:42.641Z,967.9300
2023-05-02T04:05:45.208Z,967.9500
2023-05-02T04:06:47.914Z,967.9600
2023-05-02T04:07:50.445Z,967.9715
2023-05-02T04:08:53.046Z,967.9700
2023-05-02T04:09:55.661Z,967.9608
2023-05-02T04:10:58.256Z,967.9508
2023-05-02T04:12:01.215Z,967.9508
2023-05-02T04:13:03.478Z,967.9508
2023-05-02T04:14:06.194Z,967.9631
2023-05-02T04:15:08.693Z,967.9677
2023-05-02T04:16:11.328Z,967.9753
2023-05-02T04:17:14.009Z,967.9885
2023-05-02T04:18:16.610Z,967.9969
2023-05-02T04:19:19.126Z,968.0215
2023-05-02T04:20:21.755Z,968.0400
2023-05-02T04:21:24.332Z,968.0485
2023-05-02T04:22:26.976Z,968.0523
2023-05-02T04:23:29.567Z,968.0662
2023-05-02T04:24:32.202Z,968.0746
2023-05-02T04:25:34.779Z,968.0692
2023-05-02T04:26:37.416Z,968.0831
2023-05-02T04:27:40.001Z,968.1038
2023-05-02T04:28:42.633Z,968.1254
2023-05-02T04:29:45.221Z,968.1608
2023-05-02T04:30:47.921Z,968.1992
2023-05-02T04:31:50.440Z,968.2069
2023-05-02T04:32:53.430Z,968.2369
2023-05-02T04:35:01.365Z,968.2350
2023-05-02T04:36:03.992Z,968.2346
2023-05-02T04:37:06.585Z,968.2246
2023-05-02T04:38:09.231Z,968.2139
2023-05-02T04:39:12.119Z,968.2047
2023-05-02T04:40:14.475Z,968.2092
2023-05-02T04:41:17.058Z,968.1970
2023-05-02T04:42:19.701Z,968.2015
2023-05-02T04:43:24.424Z,968.2300
2023-05-02T04:44:24.908Z,968.2485
2023-05-02T04:45:27.609Z,968.2692
2023-05-02T04:46:30.175Z,968.3000
2023-05-02T04:47:32.749Z,968.3192
2023-05-02T04:48:35.406Z,968.3408
2023-05-02T04:49:37.951Z,968.3762
2023-05-02T04:50:40.607Z,968.4131
2023-05-02T04:51:43.189Z,968.4385
2023-05-02T04:52:45.825Z,968.4415
2023-05-02T04:53:48.513Z,968.4539
2023-05-02T04:54:51.060Z,968.5000
2023-05-02T04:55:53.649Z,968.5554
2023-05-02T04:56:56.298Z,968.5869
2023-05-02T04:57:58.897Z,968.5961
2023-05-02T04:59:01.518Z,968.5770
2023-05-02T05:00:04.151Z,968.5823
2023-05-02T05:01:06.775Z,968.6384
2023-05-02T05:02:09.385Z,968.6885
2023-05-02T05:03:12.032Z,968.7184
2023-05-02T05:04:14.810Z,968.7085
2023-05-02T05:05:17.256Z,968.6915
2023-05-02T05:06:19.878Z,968.6923
2023-05-02T05:07:22.527Z,968.6992
2023-05-02T05:08:25.072Z,968.6985
2023-05-02T05:09:27.654Z,968.7231
2023-05-02T05:10:30.322Z,968.7454
2023-05-02T05:11:32.888Z,968.7623
2023-05-02T05:12:35.589Z,968.7923
2023-05-02T05:13:38.138Z,968.8177
2023-05-02T05:16:00.595Z,968.8486
2023-05-02T05:17:03.209Z,968.8538
2023-05-02T05:18:05.851Z,968.8762
2023-05-02T05:19:08.400Z,968.9069
2023-05-02T05:20:10.998Z,968.9330
2023-05-02T05:21:13.624Z,968.9600
2023-05-02T05:22:16.232Z,968.9908
2023-05-02T05:23:18.955Z,969.0208
2023-05-02T05:24:21.431Z,969.0354
2023-05-02T05:25:24.064Z,969.0492
2023-05-02T05:26:26.660Z,969.0623
2023-05-02T05:27:29.431Z,969.0531
2023-05-02T05:28:31.887Z,969.0300
2023-05-02T05:29:34.520Z,969.0239
2023-05-02T05:30:37.117Z,969.0500
2023-05-02T05:31:39.819Z,969.0715
2023-05-02T05:32:42.376Z,969.0931
2023-05-02T05:33:45.182Z,969.0954
2023-05-02T05:36:12.323Z,969.0550
2023-05-02T05:37:14.840Z,969.0670
2023-05-02T05:38:17.462Z,969.0700
2023-05-02T05:39:20.060Z,969.0746
2023-05-02T05:40:22.697Z,969.0792
2023-05-02T05:41:25.344Z,969.0900
2023-05-02T05:42:27.994Z,969.0923
2023-05-02T05:43:30.570Z,969.0831
2023-05-02T05:44:33.203Z,969.0800
2023-05-02T05:45:35.809Z,969.0600
2023-05-02T05:46:39.500Z,969.0646
2023-05-02T05:47:42.081Z,969.0785
2023-05-02T05:48:45.621Z,969.0770
2023-05-02T05:49:46.840Z,969.0654
2023-05-02T05:50:48.794Z,969.0530
2023-05-02T05:51:51.388Z,969.0554
2023-05-02T05:52:54.017Z,969.0608
2023-05-02T05:53:56.601Z,969.0416
2023-05-02T05:54:59.234Z,969.0292
2023-05-02T05:56:01.834Z,969.0415
2023-05-02T05:57:04.452Z,969.0523
2023-05-02T05:58:07.028Z,969.0708
2023-05-02T05:59:09.679Z,969.0792
2023-05-02T06:00:12.253Z,969.0969
2023-05-02T06:01:15.184Z,969.1130
2023-05-02T06:02:17.469Z,969.1308
2023-05-02T06:03:20.152Z,969.1431
2023-05-02T06:04:22.736Z,969.1692
2023-05-02T06:05:25.311Z,969.1800
2023-05-02T06:06:27.913Z,969.1870
2023-05-02T06:07:30.518Z,969.1761
2023-05-02T06:08:33.110Z,969.1931
2023-05-02T06:09:35.736Z,969.1931
2023-05-02T06:10:38.317Z,969.2092
2023-05-02T06:11:40.965Z,969.2115
2023-05-02T06:12:45.200Z,969.2415
2023-05-02T06:13:46.164Z,969.2538
2023-05-02T06:14:48.907Z,969.2492
2023-05-02T06:15:51.421Z,969.2623
2023-05-02T06:16:53.961Z,969.2877
2023-05-02T06:17:56.642Z,969.3069
2023-05-02T06:18:59.180Z,969.3054
2023-05-02T06:20:02.163Z,969.3130
2023-05-02T06:21:04.599Z,969.3223
2023-05-02T06:22:07.002Z,969.3469
2023-05-02T06:23:09.983Z,969.3723
2023-05-02T06:24:12.206Z,969.4069
2023-05-02T06:25:14.783Z,969.4438
2023-05-02T06:26:17.416Z,969.4800
2023-05-02T06:27:19.993Z,969.5115
2023-05-02T06:28:22.624Z,969.5477
2023-05-02T06:29:25.197Z,969.5823
2023-05-02T06:30:27.905Z,969.5946
2023-05-02T06:31:30.470Z,969.5923
2023-05-02T06:32:33.074Z,969.5862
2023-05-02T06:33:35.631Z,969.6092
2023-05-02T06:34:38.243Z,969.6315
2023-05-02T06:35:40.833Z,969.6285
2023-05-02T06:36:43.458Z,969.6392
2023-05-02T06:37:46.061Z,969.6331
2023-05-02T06:38:48.659Z,969.6346
2023-05-02T06:41:30.287Z,969.5943
2023-05-02T06:42:32.870Z,969.5877
2023-05-02T06:43:35.499Z,969.5746
2023-05-02T06:44:38.075Z,969.5538
2023-05-02T06:45:40.722Z,969.5461
2023-05-02T06:46:43.344Z,969.5585
2023-05-02T06:47:45.970Z,969.5654
2023-05-02T06:49:53.806Z,969.5836
2023-05-02T06:50:56.402Z,969.5939
2023-05-02T06:51:59.034Z,969.5931
2023-05-02T06:53:01.606Z,969.5984
2023-05-02T06:54:04.235Z,969.6015
2023-05-02T06:55:06.817Z,969.6161
2023-05-02T06:56:09.454Z,969.6200
2023-05-02T06:57:12.038Z,969.6254
2023-05-02T07:00:08.085Z,969.6271
2023-05-02T07:01:10.700Z,969.6385
2023-05-02T07:02:13.310Z,969.6208
2023-05-02T07:03:15.871Z,969.6023
2023-05-02T07:04:18.514Z,969.5846
2023-05-02T07:05:21.067Z,969.5670
2023-05-02T07:06:23.717Z,969.5785
2023-05-02T07:07:26.275Z,969.5839
2023-05-02T07:08:28.914Z,969.5854
2023-05-02T07:09:31.499Z,969.5770
2023-05-02T07:10:34.137Z,969.5600
2023-05-02T07:11:36.729Z,969.5546
2023-05-02T07:12:39.330Z,969.5500
2023-05-02T07:13:41.926Z,969.5461
2023-05-02T07:14:44.526Z,969.5361
2023-05-02T07:15:47.109Z,969.5239
2023-05-02T07:16:49.822Z,969.5369
2023-05-02T07:17:52.378Z,969.5554
2023-05-02T07:18:54.956Z,969.5585
2023-05-02T07:19:57.518Z,969.5862
2023-05-02T07:21:00.198Z,969.5831
2023-05-02T07:22:02.804Z,969.5969
2023-05-02T07:23:05.365Z,969.6146
2023-05-02T07:24:07.945Z,969.6223
2023-05-02T07:25:10.570Z,969.6262
2023-05-02T07:26:13.132Z,969.6185
2023-05-02T07:27:15.756Z,969.6208
2023-05-02T07:28:18.335Z,969.6215
2023-05-02T07:29:20.978Z,969.6262
2023-05-02T07:30:23.531Z,969.6230
2023-05-02T07:31:26.196Z,969.6169
2023-05-02T07:32:28.787Z,969.6069
2023-05-02T07:33:31.564Z,969.6215
2023-05-02T07:34:33.944Z,969.6115
2023-05-02T07:35:36.554Z,969.5984
2023-05-02T07:36:39.140Z,969.5885
2023-05-02T07:37:41.749Z,969.5770
2023-05-02T07:38:44.459Z,969.5762
2023-05-02T07:39:46.968Z,969.5808
2023-05-02T07:40:49.542Z,969.5847
2023-05-02T07:41:52.154Z,969.5792
2023-05-02T07:42:54.749Z,969.5777
2023-05-02T07:43:57.361Z,969.5823
2023-05-02T07:44:59.968Z,969.5954
2023-05-02T07:48:01.045Z,969.6078
2023-05-02T07:49:03.488Z,969.6146
2023-05-02T07:50:06.107Z,969.6208
2023-05-02T07:51:08.687Z,969.5992
2023-05-02T07:52:11.311Z,969.5885
2023-05-02T07:53:13.891Z,969.5831
2023-05-02T07:54:16.508Z,969.5885
2023-05-02T07:55:19.370Z,969.6100
2023-05-02T07:56:21.734Z,969.6192
2023-05-02T07:57:24.297Z,969.6215
2023-05-02T07:58:26.908Z,969.6254
2023-05-02T07:59:29.477Z,969.6031
2023-05-02T08:00:32.121Z,969.5916
2023-05-02T08:01:34.679Z,969.5854
2023-05-02T08:02:37.455Z,969.6023
2023-05-02T08:03:40.016Z,969.5961
2023-05-02T08:06:07.022Z,969.6171
2023-05-02T08:07:09.606Z,969.6292
2023-05-02T08:08:12.185Z,969.6408
2023-05-02T08:09:14.812Z,969.6477
2023-05-02T08:10:17.395Z,969.6508
2023-05-02T08:11:21.865Z,969.6731
2023-05-02T08:12:22.605Z,969.7023
2023-05-02T08:13:25.237Z,969.7208
2023-05-02T08:14:27.782Z,969.7253
2023-05-02T08:15:30.418Z,969.7323
2023-05-02T08:16:33.034Z,969.7346
2023-05-02T08:17:35.664Z,969.7269
2023-05-02T08:18:38.337Z,969.7200
2023-05-02T08:19:40.813Z,969.7100
2023-05-02T08:20:43.362Z,969.7346
2023-05-02T08:21:45.982Z,969.7431
2023-05-02T08:22:48.558Z,969.7039
2023-05-02T08:23:51.170Z,969.6785
2023-05-02T08:24:53.749Z,969.6862
2023-05-02T08:25:56.370Z,969.6638
2023-05-02T08:26:58.942Z,969.6584
2023-05-02T08:28:01.576Z,969.6308
2023-05-02T08:29:04.143Z,969.6100
2023-05-02T08:30:07.086Z,969.5900
2023-05-02T08:31:09.377Z,969.6046
2023-05-02T08:32:12.051Z,969.6085
2023-05-02T08:33:14.615Z,969.5977
2023-05-02T08:34:17.134Z,969.6023
2023-05-02T08:35:19.685Z,969.6123
2023-05-02T08:36:22.314Z,969.5969
2023-05-02T08:37:24.876Z,969.5731
2023-05-02T08:38:27.507Z,969.6369
2023-05-02T08:39:30.071Z,969.6392
2023-05-02T08:40:40.893Z,969.6262
2023-05-02T08:41:35.269Z,969.6115
2023-05-02T08:42:37.893Z,969.5984
2023-05-02T08:43:40.484Z,969.5808
2023-05-02T08:44:43.079Z,969.5939
2023-05-02T08:45:45.661Z,969.5977
2023-05-02T08:46:48.357Z,969.6208
2023-05-02T08:47:50.949Z,969.6292
2023-05-02T08:48:53.470Z,969.6238
2023-05-02T08:49:56.032Z,969.6423
2023-05-02T08:50:58.657Z,969.6339
2023-05-02T08:52:01.229Z,969.6454
2023-05-02T08:53:03.847Z,969.6677
2023-05-02T08:54:06.423Z,969.6677
2023-05-02T08:55:09.060Z,969.6885
2023-05-02T08:56:11.622Z,969.7485
2023-05-02T08:57:14.248Z,969.7007
2023-05-02T08:58:17.739Z,969.7139
2023-05-02T08:59:19.444Z,969.7477
2023-05-02T09:00:22.056Z,969.7762
2023-05-02T09:01:24.789Z,969.7423
2023-05-02T09:02:27.212Z,969.7577
2023-05-02T09:03:29.820Z,969.7692
2023-05-02T09:04:32.422Z,969.8138
2023-05-02T09:05:35.002Z,969.7992
2023-05-02T09:06:37.679Z,969.8015
2023-05-02T09:07:40.195Z,969.7816
2023-05-02T09:08:42.765Z,969.7908
2023-05-02T09:11:24.327Z,969.8071
2023-05-02T09:12:26.925Z,969.8038
2023-05-02T09:13:29.498Z,969.8200
2023-05-02T09:14:32.124Z,969.7954
2023-05-02T09:15:34.892Z,969.7800
2023-05-02T09:16:37.362Z,969.8123
2023-05-02T09:17:39.995Z,969.7985
2023-05-02T09:18:42.542Z,969.8307
2023-05-02T09:19:45.094Z,969.8354
2023-05-02T09:20:47.714Z,969.8469
2023-05-02T09:21:50.290Z,969.8339
2023-05-02T09:22:52.928Z,969.8192
2023-05-02T09:23:55.526Z,969.8277
2023-05-02T09:24:58.384Z,969.8523
2023-05-02T09:26:00.661Z,969.8362
2023-05-02T09:27:03.497Z,969.8369
2023-05-02T09:28:05.852Z,969.8561
2023-05-02T09:29:08.477Z,969.8423
2023-05-02T09:30:11.053Z,969.8315
2023-05-02T09:31:15.366Z,969.8292
2023-05-02T09:32:16.277Z,969.8392
2023-05-02T09:33:19.330Z,969.8277
2023-05-02T09:34:21.593Z,969.8285
2023-05-02T09:35:24.044Z,969.8185
2023-05-02T09:36:26.611Z,969.8377
2023-05-02T09:37:29.228Z,969.8400
2023-05-02T09:38:31.806Z,969.8484
2023-05-02T09:39:34.436Z,969.8323
2023-05-02T09:40:36.993Z,969.8208
2023-05-02T09:41:39.621Z,969.8146
2023-05-02T09:42:42.200Z,969.8223
2023-05-02T09:43:44.816Z,969.8015
2023-05-02T09:44:47.421Z,969.8054
2023-05-02T09:45:50.073Z,969.8108
2023-05-02T09:46:52.586Z,969.8000
2023-05-02T09:47:55.313Z,969.8170
2023-05-02T09:48:57.776Z,969.8069
2023-05-02T09:50:00.402Z,969.7923
2023-05-02T09:51:02.963Z,969.7808
2023-05-02T09:52:05.573Z,969.7877
2023-05-02T09:53:08.416Z,969.7785
2023-05-02T09:54:10.784Z,969.7839
2023-05-02T09:55:13.352Z,969.7938
2023-05-02T09:56:15.981Z,969.8146
2023-05-02T09:57:18.543Z,969.8192
2023-05-02T09:58:21.174Z,969.8347
2023-05-02T09:59:23.881Z,969.8331
2023-05-02T10:00:26.349Z,969.8292
2023-05-02T10:01:28.959Z,969.8423
2023-05-02T10:02:31.583Z,969.8185
2023-05-02T10:04:53.796Z,969.8007
2023-05-02T10:05:56.357Z,969.8085
2023-05-02T10:06:58.994Z,969.7931
2023-05-02T10:08:01.552Z,969.7600
2023-05-02T10:09:04.174Z,969.7454
2023-05-02T10:10:06.758Z,969.7623
2023-05-02T10:11:09.375Z,969.7715
2023-05-02T10:12:12.157Z,969.7631
2023-05-02T10:13:14.563Z,969.7708
2023-05-02T10:14:17.150Z,969.7831
2023-05-02T10:15:19.770Z,969.7777
2023-05-02T10:16:22.402Z,969.7985
2023-05-02T10:17:24.973Z,969.8015
2023-05-02T10:18:27.527Z,969.8069
2023-05-02T10:19:30.111Z,969.7854
2023-05-02T10:20:32.696Z,969.7769
2023-05-02T10:21:35.305Z,969.8231
2023-05-02T10:22:37.866Z,969.8008
2023-05-02T10:23:40.481Z,969.7769
2023-05-02T10:24:43.054Z,969.7654
2023-05-02T10:25:45.686Z,969.7808
2023-05-02T10:26:48.282Z,969.7800
2023-05-02T10:27:50.869Z,969.7631
2023-05-02T10:28:53.438Z,969.7639
2023-05-02T10:29:56.056Z,969.7485
2023-05-02T10:30:58.636Z,969.7754
2023-05-02T10:32:01.288Z,969.7677
2023-05-02T10:33:03.910Z,969.7877
2023-05-02T10:34:06.684Z,969.7731
2023-05-02T10:35:10.255Z,969.7585
2023-05-02T10:36:11.620Z,969.7562
2023-05-02T10:37:14.179Z,969.7423
2023-05-02T10:38:16.804Z,969.7223
2023-05-02T10:39:19.378Z,969.7392
2023-05-02T10:40:21.984Z,969.7269
2023-05-02T10:41:24.553Z,969.7015
2023-05-02T10:42:28.381Z,969.7023
2023-05-02T10:44:54.221Z,969.7250
2023-05-02T10:45:56.794Z,969.7354
2023-05-02T10:46:59.634Z,969.7531
2023-05-02T10:48:02.006Z,969.7538
2023-05-02T10:49:04.595Z,969.7238
2023-05-02T10:50:07.173Z,969.7392
2023-05-02T10:51:09.941Z,969.7492
2023-05-02T10:52:12.356Z,969.7446
2023-05-02T10:53:14.981Z,969.7246
2023-05-02T10:54:17.559Z,969.7146
2023-05-02T10:56:49.439Z,969.6936
2023-05-02T10:57:52.008Z,969.7208
2023-05-02T10:58:54.637Z,969.7285
2023-05-02T10:59:57.217Z,969.7192
2023-05-02T11:00:59.908Z,969.7208
2023-05-02T11:02:04.019Z,969.7192
2023-05-02T11:03:05.090Z,969.7146
2023-05-02T11:04:07.627Z,969.7338
2023-05-02T11:05:10.264Z,969.7408
2023-05-02T11:06:12.849Z,969.7677
2023-05-02T11:07:15.414Z,969.7877
2023-05-02T11:08:20.210Z,969.7369
2023-05-02T11:09:20.612Z,969.7531
2023-05-02T11:10:23.191Z,969.7615
2023-05-02T11:11:25.831Z,969.7746
2023-05-02T11:12:28.367Z,969.7953
2023-05-02T11:13:30.987Z,969.7977
2023-05-02T11:14:33.603Z,969.8100
2023-05-02T11:15:36.182Z,969.8215
2023-05-02T11:16:38.781Z,969.8231
2023-05-02T11:17:41.384Z,969.8200
2023-05-02T11:18:43.942Z,969.8685
2023-05-02T11:19:46.565Z,969.8431
2023-05-02T11:20:49.129Z,969.8062
2023-05-02T11:21:51.757Z,969.8038
2023-05-02T11:22:54.323Z,969.8015
2023-05-02T11:23:56.948Z,969.7915
2023-05-02T11:24:59.726Z,969.7977
2023-05-02T11:26:02.146Z,969.7900
2023-05-02T11:27:04.720Z,969.7769
2023-05-02T11:28:07.566Z,969.7692
2023-05-02T11:29:09.909Z,969.7654
2023-05-02T11:30:12.785Z,969.7816
2023-05-02T11:31:15.114Z,969.7854
2023-05-02T11:32:17.798Z,969.7785
2023-05-02T11:33:20.475Z,969.7662
2023-05-02T11:34:22.932Z,969.7469
2023-05-02T11:35:25.477Z,969.7315
2023-05-02T11:36:29.161Z,969.7377
2023-05-02T11:37:30.923Z,969.7108
2023-05-02T11:38:33.332Z,969.7054
2023-05-02T11:39:35.888Z,969.7047
2023-05-02T11:40:38.521Z,969.7023
2023-05-02T11:41:41.084Z,969.7054
2023-05-02T11:42:43.710Z,969.7300
2023-05-02T11:43:46.290Z,969.7377
2023-05-02T11:44:48.891Z,969.7069
2023-05-02T11:45:51.506Z,969.6870
2023-05-02T11:46:54.088Z,969.6592
2023-05-02T11:47:58.322Z,969.6477
2023-05-02T11:48:59.268Z,969.6539
2023-05-02T11:50:01.841Z,969.6323
2023-05-02T11:52:38.521Z,969.5957
2023-05-02T11:53:41.101Z,969.5908
2023-05-02T11:54:43.728Z,969.5815
2023-05-02T11:55:46.299Z,969.5731
2023-05-02T11:56:48.933Z,969.5677
2023-05-02T11:57:51.767Z,969.5346
2023-05-02T11:58:54.120Z,969.5485
2023-05-02T11:59:56.680Z,969.5808
2023-05-02T12:00:59.305Z,969.5800
2023-05-02T12:02:01.882Z,969.5700
2023-05-02T12:03:04.562Z,969.5508
2023-05-02T12:04:07.107Z,969.5385
2023-05-02T12:05:09.693Z,969.5431
2023-05-02T12:06:12.890Z,969.5585
2023-05-02T12:07:14.935Z,969.5823
2023-05-02T12:08:17.431Z,969.5792
2023-05-02T12:09:20.062Z,969.6223
2023-05-02T12:10:22.630Z,969.6192
2023-05-02T12:11:25.425Z,969.6230
2023-05-02T12:12:27.850Z,969.6447
2023-05-02T12:13:30.461Z,969.6546
2023-05-02T12:14:33.031Z,969.6477
2023-05-02T12:15:35.645Z,969.6531
2023-05-02T12:16:38.348Z,969.6946
2023-05-02T12:17:40.890Z,969.6600
2023-05-02T12:18:43.418Z,969.6685
2023-05-02T12:19:46.393Z,969.6623
2023-05-02T12:20:48.615Z,969.6423
2023-05-02T12:23:20.504Z,969.6636
2023-05-02T12:24:23.078Z,969.6562
2023-05-02T12:25:25.733Z,969.6608
2023-05-02T12:26:28.281Z,969.6600
2023-05-02T12:27:30.913Z,969.6454
2023-05-02T12:28:33.480Z,969.6085
2023-05-02T12:29:36.115Z,969.6130
2023-05-02T12:30:38.664Z,969.5900
2023-05-02T12:31:41.355Z,969.6038
2023-05-02T12:32:43.933Z,969.6015
2023-05-02T12:33:46.467Z,969.6100
2023-05-02T12:34:49.045Z,969.6185
2023-05-02T12:35:51.660Z,969.6146
2023-05-02T12:36:54.242Z,969.6130
2023-05-02T12:37:57.199Z,969.6038
2023-05-02T12:38:59.825Z,969.5954
2023-05-02T12:40:02.206Z,969.6030
2023-05-02T12:41:04.615Z,969.6108
2023-05-02T12:42:07.233Z,969.6108